sensor_id;sensor_type;location;lat;lon;timestamp;temperature;humidity
33717;DHT22;20046;50.746;7.072;2022-10-16T00:00:42;14.50;99.90
33717;DHT22;20046;50.746;7.072;2022-10-16T00:03:09;14.40;99.90
33717;DHT22;20046;50.746;7.072;2022-10-16T00:05:40;14.40;99.90
33717;DHT22;20046;50.746;7.072;2022-10-16T00:08:06;14.40;99.90
33717;DHT22;20046;50.746;7.072;2022-10-16T00:10:32;14.40;99.90
33717;DHT22;20046;50.746;7.072;2022-10-16T00:12:57;14.40;99.90
33717;DHT22;20046;50.746;7.072;2022-10-16T00:15:23;14.40;99.90
33717;DHT22;20046;50.746;7.072;2022-10-16T00:17:48;14.40;99.90
33717;DHT22;20046;50.746;7.072;2022-10-16T00:20:14;14.40;99.90
33717;DHT22;20046;50.746;7.072;2022-10-16T00:22:39;14.40;99.90
33717;DHT22;20046;50.746;7.072;2022-10-16T00:25:05;14.50;99.90
33717;DHT22;20046;50.746;7.072;2022-10-16T00:27:31;14.40;99.90
33717;DHT22;20046;50.746;7.072;2022-10-16T00:29:56;14.40;99.90
33717;DHT22;20046;50.746;7.072;2022-10-16T00:32:22;14.40;99.90
33717;DHT22;20046;50.746;7.072;2022-10-16T00:34:48;14.40;99.90
33717;DHT22;20046;50.746;7.072;2022-10-16T00:37:13;14.40;99.90
33717;DHT22;20046;50.746;7.072;2022-10-16T00:39:39;14.40;99.90
33717;DHT22;20046;50.746;7.072;2022-10-16T00:42:04;14.40;99.90
33717;DHT22;20046;50.746;7.072;2022-10-16T00:44:54;14.30;99.90
33717;DHT22;20046;50.746;7.072;2022-10-16T00:47:27;14.30;99.90
33717;DHT22;20046;50.746;7.072;2022-10-16T00:50:00;14.30;99.90
33717;DHT22;20046;50.746;7.072;2022-10-16T00:52:27;14.30;99.90
33717;DHT22;20046;50.746;7.072;2022-10-16T00:54:53;14.20;99.90
33717;DHT22;20046;50.746;7.072;2022-10-16T00:57:19;14.20;99.90
33717;DHT22;20046;50.746;7.072;2022-10-16T00:59:45;14.20;99.90
33717;DHT22;20046;50.746;7.072;2022-10-16T01:02:16;14.20;99.90
33717;DHT22;20046;50.746;7.072;2022-10-16T01:04:45;14.20;99.90
33717;DHT22;20046;50.746;7.072;2022-10-16T01:08:34;14.20;99.90
33717;DHT22;20046;50.746;7.072;2022-10-16T01:13:05;14.20;99.90
33717;DHT22;20046;50.746;7.072;2022-10-16T01:15:47;14.20;99.90
33717;DHT22;20046;50.746;7.072;2022-10-16T01:21:07;14.20;99.90
33717;DHT22;20046;50.746;7.072;2022-10-16T01:24:03;14.10;99.90
33717;DHT22;20046;50.746;7.072;2022-10-16T01:31:53;13.90;99.90
33717;DHT22;20046;50.746;7.072;2022-10-16T01:34:37;13.90;99.90
33717;DHT22;20046;50.746;7.072;2022-10-16T01:37:16;13.90;99.90
33717;DHT22;20046;50.746;7.072;2022-10-16T01:39:45;13.80;99.90
33717;DHT22;20046;50.746;7.072;2022-10-16T01:42:25;13.80;99.90
33717;DHT22;20046;50.746;7.072;2022-10-16T01:44:54;13.80;99.90
33717;DHT22;20046;50.746;7.072;2022-10-16T01:47:23;13.70;99.90
33717;DHT22;20046;50.746;7.072;2022-10-16T01:49:51;13.70;99.90
33717;DHT22;20046;50.746;7.072;2022-10-16T01:52:20;13.70;99.90
33717;DHT22;20046;50.746;7.072;2022-10-16T01:54:49;13.70;99.90
33717;DHT22;20046;50.746;7.072;2022-10-16T01:57:17;13.70;99.90
33717;DHT22;20046;50.746;7.072;2022-10-16T01:59:48;13.70;99.90
33717;DHT22;20046;50.746;7.072;2022-10-16T02:02:15;13.80;99.90
33717;DHT22;20046;50.746;7.072;2022-10-16T02:04:46;13.80;99.90
33717;DHT22;20046;50.746;7.072;2022-10-16T02:07:13;13.90;99.90
33717;DHT22;20046;50.746;7.072;2022-10-16T02:09:40;13.90;99.90
33717;DHT22;20046;50.746;7.072;2022-10-16T02:12:30;13.90;99.90
33717;DHT22;20046;50.746;7.072;2022-10-16T02:14:57;13.90;99.90
33717;DHT22;20046;50.746;7.072;2022-10-16T02:17:24;14.00;99.90
33717;DHT22;20046;50.746;7.072;2022-10-16T02:19:52;14.00;99.90
33717;DHT22;20046;50.746;7.072;2022-10-16T02:22:28;14.00;99.90
33717;DHT22;20046;50.746;7.072;2022-10-16T02:25:05;14.10;99.90
33717;DHT22;20046;50.746;7.072;2022-10-16T02:30:22;14.00;99.90
33717;DHT22;20046;50.746;7.072;2022-10-16T02:32:49;14.10;99.90
33717;DHT22;20046;50.746;7.072;2022-10-16T02:35:17;14.00;99.90
33717;DHT22;20046;50.746;7.072;2022-10-16T02:37:45;14.10;99.90
33717;DHT22;20046;50.746;7.072;2022-10-16T02:40:12;14.10;99.90
33717;DHT22;20046;50.746;7.072;2022-10-16T02:42:39;14.10;99.90
33717;DHT22;20046;50.746;7.072;2022-10-16T02:45:07;14.20;99.90
33717;DHT22;20046;50.746;7.072;2022-10-16T02:47:33;14.20;99.90
33717;DHT22;20046;50.746;7.072;2022-10-16T02:49:59;14.20;99.90
33717;DHT22;20046;50.746;7.072;2022-10-16T02:52:24;14.20;99.90
33717;DHT22;20046;50.746;7.072;2022-10-16T02:54:50;14.20;99.90
33717;DHT22;20046;50.746;7.072;2022-10-16T02:57:16;14.20;99.90
33717;DHT22;20046;50.746;7.072;2022-10-16T02:59:41;14.20;99.90
33717;DHT22;20046;50.746;7.072;2022-10-16T03:02:07;14.20;99.90
33717;DHT22;20046;50.746;7.072;2022-10-16T03:04:32;14.20;99.90
33717;DHT22;20046;50.746;7.072;2022-10-16T03:06:58;14.30;99.90
33717;DHT22;20046;50.746;7.072;2022-10-16T03:09:24;14.30;99.90
33717;DHT22;20046;50.746;7.072;2022-10-16T03:11:49;14.30;99.90
33717;DHT22;20046;50.746;7.072;2022-10-16T03:14:15;14.30;99.90
33717;DHT22;20046;50.746;7.072;2022-10-16T03:16:40;14.30;99.90
33717;DHT22;20046;50.746;7.072;2022-10-16T03:19:06;14.20;99.90
33717;DHT22;20046;50.746;7.072;2022-10-16T03:21:32;14.30;99.90
33717;DHT22;20046;50.746;7.072;2022-10-16T03:23:57;14.30;99.90
33717;DHT22;20046;50.746;7.072;2022-10-16T03:26:23;14.40;99.90
33717;DHT22;20046;50.746;7.072;2022-10-16T03:28:48;14.40;99.90
33717;DHT22;20046;50.746;7.072;2022-10-16T03:31:14;14.40;99.90
33717;DHT22;20046;50.746;7.072;2022-10-16T03:33:39;14.40;99.90
33717;DHT22;20046;50.746;7.072;2022-10-16T03:36:05;14.50;99.90
33717;DHT22;20046;50.746;7.072;2022-10-16T03:38:30;14.50;99.90
33717;DHT22;20046;50.746;7.072;2022-10-16T03:40:56;14.50;99.90
33717;DHT22;20046;50.746;7.072;2022-10-16T03:43:22;14.50;99.90
33717;DHT22;20046;50.746;7.072;2022-10-16T03:45:47;14.60;99.90
33717;DHT22;20046;50.746;7.072;2022-10-16T03:48:13;14.60;99.90
33717;DHT22;20046;50.746;7.072;2022-10-16T03:50:38;14.70;99.90
33717;DHT22;20046;50.746;7.072;2022-10-16T03:53:04;14.70;99.90
33717;DHT22;20046;50.746;7.072;2022-10-16T03:55:29;14.70;99.90
33717;DHT22;20046;50.746;7.072;2022-10-16T03:57:55;14.70;99.90
33717;DHT22;20046;50.746;7.072;2022-10-16T04:00:21;14.70;99.90
33717;DHT22;20046;50.746;7.072;2022-10-16T04:02:46;14.70;99.90
33717;DHT22;20046;50.746;7.072;2022-10-16T04:05:12;14.60;99.90
33717;DHT22;20046;50.746;7.072;2022-10-16T04:07:37;14.60;99.90
33717;DHT22;20046;50.746;7.072;2022-10-16T04:10:05;14.60;99.90
33717;DHT22;20046;50.746;7.072;2022-10-16T04:12:31;14.50;99.90
33717;DHT22;20046;50.746;7.072;2022-10-16T04:14:56;14.50;99.90
33717;DHT22;20046;50.746;7.072;2022-10-16T04:17:22;14.50;99.90
33717;DHT22;20046;50.746;7.072;2022-10-16T04:19:48;14.50;99.90
33717;DHT22;20046;50.746;7.072;2022-10-16T04:22:13;14.50;99.90
33717;DHT22;20046;50.746;7.072;2022-10-16T04:24:39;14.40;99.90
33717;DHT22;20046;50.746;7.072;2022-10-16T04:27:05;14.40;99.90
33717;DHT22;20046;50.746;7.072;2022-10-16T04:29:31;14.40;99.90
33717;DHT22;20046;50.746;7.072;2022-10-16T04:31:56;14.40;99.90
33717;DHT22;20046;50.746;7.072;2022-10-16T04:34:22;14.40;99.90
33717;DHT22;20046;50.746;7.072;2022-10-16T04:36:48;14.50;99.90
33717;DHT22;20046;50.746;7.072;2022-10-16T04:39:17;14.50;99.90
33717;DHT22;20046;50.746;7.072;2022-10-16T04:41:42;14.50;99.90
33717;DHT22;20046;50.746;7.072;2022-10-16T04:44:08;14.50;99.90
33717;DHT22;20046;50.746;7.072;2022-10-16T04:46:34;14.50;99.90
33717;DHT22;20046;50.746;7.072;2022-10-16T04:48:59;14.50;99.90
33717;DHT22;20046;50.746;7.072;2022-10-16T04:51:25;14.50;99.90
33717;DHT22;20046;50.746;7.072;2022-10-16T04:53:52;14.50;99.90
33717;DHT22;20046;50.746;7.072;2022-10-16T04:56:18;14.50;99.90
33717;DHT22;20046;50.746;7.072;2022-10-16T04:58:43;14.50;99.90
33717;DHT22;20046;50.746;7.072;2022-10-16T05:01:09;14.40;99.90
33717;DHT22;20046;50.746;7.072;2022-10-16T05:03:35;14.40;99.90
33717;DHT22;20046;50.746;7.072;2022-10-16T05:06:00;14.30;99.90
33717;DHT22;20046;50.746;7.072;2022-10-16T05:08:26;14.30;99.90
33717;DHT22;20046;50.746;7.072;2022-10-16T05:10:51;14.20;99.90
33717;DHT22;20046;50.746;7.072;2022-10-16T05:13:17;14.30;99.90
33717;DHT22;20046;50.746;7.072;2022-10-16T05:15:47;14.20;99.90
33717;DHT22;20046;50.746;7.072;2022-10-16T05:18:13;14.20;99.90
33717;DHT22;20046;50.746;7.072;2022-10-16T05:20:39;14.10;99.90
33717;DHT22;20046;50.746;7.072;2022-10-16T05:23:05;14.10;99.90
33717;DHT22;20046;50.746;7.072;2022-10-16T05:25:30;14.10;99.90
33717;DHT22;20046;50.746;7.072;2022-10-16T05:27:56;14.10;99.90
33717;DHT22;20046;50.746;7.072;2022-10-16T05:30:21;14.10;99.90
33717;DHT22;20046;50.746;7.072;2022-10-16T05:32:48;14.10;99.90
33717;DHT22;20046;50.746;7.072;2022-10-16T05:35:14;14.10;99.90
33717;DHT22;20046;50.746;7.072;2022-10-16T05:37:40;14.10;99.90
33717;DHT22;20046;50.746;7.072;2022-10-16T05:40:06;14.10;99.90
33717;DHT22;20046;50.746;7.072;2022-10-16T05:42:32;14.10;99.90
33717;DHT22;20046;50.746;7.072;2022-10-16T05:44:57;14.20;99.90
33717;DHT22;20046;50.746;7.072;2022-10-16T05:47:23;14.10;99.90
33717;DHT22;20046;50.746;7.072;2022-10-16T05:49:48;14.10;99.90
33717;DHT22;20046;50.746;7.072;2022-10-16T05:52:14;14.10;99.90
33717;DHT22;20046;50.746;7.072;2022-10-16T05:54:40;14.20;99.90
33717;DHT22;20046;50.746;7.072;2022-10-16T05:57:05;14.20;99.90
33717;DHT22;20046;50.746;7.072;2022-10-16T05:59:31;14.20;99.90
33717;DHT22;20046;50.746;7.072;2022-10-16T06:01:57;14.10;99.90
33717;DHT22;20046;50.746;7.072;2022-10-16T06:04:23;14.20;99.90
33717;DHT22;20046;50.746;7.072;2022-10-16T06:06:48;14.20;99.90
33717;DHT22;20046;50.746;7.072;2022-10-16T06:09:14;14.20;99.90
33717;DHT22;20046;50.746;7.072;2022-10-16T06:11:40;14.20;99.90
33717;DHT22;20046;50.746;7.072;2022-10-16T06:14:05;14.20;99.90
33717;DHT22;20046;50.746;7.072;2022-10-16T06:16:38;14.30;99.90
33717;DHT22;20046;50.746;7.072;2022-10-16T06:19:04;14.30;99.90
33717;DHT22;20046;50.746;7.072;2022-10-16T06:21:31;14.30;99.90
33717;DHT22;20046;50.746;7.072;2022-10-16T06:23:57;14.30;99.90
33717;DHT22;20046;50.746;7.072;2022-10-16T06:26:26;14.30;99.90
33717;DHT22;20046;50.746;7.072;2022-10-16T06:28:54;14.30;99.90
33717;DHT22;20046;50.746;7.072;2022-10-16T06:31:20;14.30;99.90
33717;DHT22;20046;50.746;7.072;2022-10-16T06:33:50;14.30;99.90
33717;DHT22;20046;50.746;7.072;2022-10-16T06:36:17;14.20;99.90
33717;DHT22;20046;50.746;7.072;2022-10-16T06:38:43;14.20;99.90
33717;DHT22;20046;50.746;7.072;2022-10-16T06:41:11;14.20;99.90
33717;DHT22;20046;50.746;7.072;2022-10-16T06:43:37;14.30;99.90
33717;DHT22;20046;50.746;7.072;2022-10-16T06:46:05;14.30;99.90
33717;DHT22;20046;50.746;7.072;2022-10-16T06:48:33;14.20;99.90
33717;DHT22;20046;50.746;7.072;2022-10-16T06:53:33;14.30;99.90
33717;DHT22;20046;50.746;7.072;2022-10-16T06:56:19;14.40;99.90
33717;DHT22;20046;50.746;7.072;2022-10-16T06:58:45;14.50;99.90
33717;DHT22;20046;50.746;7.072;2022-10-16T07:01:12;14.50;99.90
33717;DHT22;20046;50.746;7.072;2022-10-16T07:03:40;14.50;99.90
33717;DHT22;20046;50.746;7.072;2022-10-16T07:06:07;14.60;99.90
33717;DHT22;20046;50.746;7.072;2022-10-16T07:08:34;14.70;99.90
33717;DHT22;20046;50.746;7.072;2022-10-16T07:11:09;14.60;99.90
33717;DHT22;20046;50.746;7.072;2022-10-16T07:13:38;14.70;99.90
33717;DHT22;20046;50.746;7.072;2022-10-16T07:16:12;14.70;99.90
33717;DHT22;20046;50.746;7.072;2022-10-16T07:18:38;14.70;99.90
33717;DHT22;20046;50.746;7.072;2022-10-16T07:21:27;14.80;99.90
33717;DHT22;20046;50.746;7.072;2022-10-16T07:23:55;14.80;99.90
33717;DHT22;20046;50.746;7.072;2022-10-16T07:26:22;14.90;99.90
33717;DHT22;20046;50.746;7.072;2022-10-16T07:28:48;15.00;99.90
33717;DHT22;20046;50.746;7.072;2022-10-16T07:31:15;15.00;99.90
33717;DHT22;20046;50.746;7.072;2022-10-16T07:33:43;15.10;99.90
33717;DHT22;20046;50.746;7.072;2022-10-16T07:36:10;15.20;99.90
33717;DHT22;20046;50.746;7.072;2022-10-16T07:38:36;15.20;99.90
33717;DHT22;20046;50.746;7.072;2022-10-16T07:41:05;15.20;99.90
33717;DHT22;20046;50.746;7.072;2022-10-16T07:43:32;15.20;99.90
33717;DHT22;20046;50.746;7.072;2022-10-16T07:45:58;15.20;99.90
33717;DHT22;20046;50.746;7.072;2022-10-16T07:48:25;15.20;99.90
33717;DHT22;20046;50.746;7.072;2022-10-16T07:50:52;15.30;99.90
33717;DHT22;20046;50.746;7.072;2022-10-16T07:53:17;15.30;99.90
33717;DHT22;20046;50.746;7.072;2022-10-16T07:55:43;15.40;99.90
33717;DHT22;20046;50.746;7.072;2022-10-16T07:58:08;15.50;99.90
33717;DHT22;20046;50.746;7.072;2022-10-16T08:00:36;15.50;99.90
33717;DHT22;20046;50.746;7.072;2022-10-16T08:03:02;15.60;99.90
33717;DHT22;20046;50.746;7.072;2022-10-16T08:05:29;15.60;99.90
33717;DHT22;20046;50.746;7.072;2022-10-16T08:07:55;15.60;99.90
33717;DHT22;20046;50.746;7.072;2022-10-16T08:10:22;15.60;99.90
33717;DHT22;20046;50.746;7.072;2022-10-16T08:12:48;15.60;99.90
33717;DHT22;20046;50.746;7.072;2022-10-16T08:15:14;15.50;99.90
33717;DHT22;20046;50.746;7.072;2022-10-16T08:17:39;15.50;99.90
33717;DHT22;20046;50.746;7.072;2022-10-16T08:20:05;15.40;99.90
33717;DHT22;20046;50.746;7.072;2022-10-16T08:22:31;15.30;99.90
33717;DHT22;20046;50.746;7.072;2022-10-16T08:24:57;15.40;99.90
33717;DHT22;20046;50.746;7.072;2022-10-16T08:27:22;15.50;99.90
33717;DHT22;20046;50.746;7.072;2022-10-16T08:29:51;15.60;99.90
33717;DHT22;20046;50.746;7.072;2022-10-16T08:32:16;15.80;99.90
33717;DHT22;20046;50.746;7.072;2022-10-16T08:34:42;15.90;99.90
33717;DHT22;20046;50.746;7.072;2022-10-16T08:37:07;16.00;99.90
33717;DHT22;20046;50.746;7.072;2022-10-16T08:39:36;16.00;99.90
33717;DHT22;20046;50.746;7.072;2022-10-16T08:42:26;16.10;99.90
33717;DHT22;20046;50.746;7.072;2022-10-16T08:50:27;16.40;99.90
33717;DHT22;20046;50.746;7.072;2022-10-16T08:52:53;16.40;99.90
33717;DHT22;20046;50.746;7.072;2022-10-16T08:55:39;16.50;99.90
33717;DHT22;20046;50.746;7.072;2022-10-16T08:58:14;16.60;99.90
33717;DHT22;20046;50.746;7.072;2022-10-16T09:00:42;16.70;99.90
33717;DHT22;20046;50.746;7.072;2022-10-16T09:12:05;17.30;99.90
33717;DHT22;20046;50.746;7.072;2022-10-16T09:22:48;18.10;99.90
33717;DHT22;20046;50.746;7.072;2022-10-16T09:25:19;18.30;99.90
33717;DHT22;20046;50.746;7.072;2022-10-16T09:27:48;18.40;99.90
33717;DHT22;20046;50.746;7.072;2022-10-16T09:30:17;18.70;99.90
33717;DHT22;20046;50.746;7.072;2022-10-16T09:32:46;19.00;99.90
33717;DHT22;20046;50.746;7.072;2022-10-16T09:35:22;19.30;99.90
33717;DHT22;20046;50.746;7.072;2022-10-16T09:37:52;19.50;99.90
33717;DHT22;20046;50.746;7.072;2022-10-16T09:40:31;19.70;99.90
33717;DHT22;20046;50.746;7.072;2022-10-16T09:46:04;20.10;99.90
33717;DHT22;20046;50.746;7.072;2022-10-16T09:51:05;19.70;99.90
33717;DHT22;20046;50.746;7.072;2022-10-16T09:53:40;19.50;99.90
33717;DHT22;20046;50.746;7.072;2022-10-16T09:56:06;19.30;99.90
33717;DHT22;20046;50.746;7.072;2022-10-16T09:58:33;19.30;99.90
33717;DHT22;20046;50.746;7.072;2022-10-16T10:00:59;19.30;99.90
33717;DHT22;20046;50.746;7.072;2022-10-16T10:03:45;19.50;99.90
33717;DHT22;20046;50.746;7.072;2022-10-16T10:08:55;19.70;99.90
33717;DHT22;20046;50.746;7.072;2022-10-16T10:11:57;19.70;99.90
33717;DHT22;20046;50.746;7.072;2022-10-16T10:14:32;19.80;99.90
33717;DHT22;20046;50.746;7.072;2022-10-16T10:19:58;19.80;99.90
33717;DHT22;20046;50.746;7.072;2022-10-16T10:25:12;20.10;99.90
33717;DHT22;20046;50.746;7.072;2022-10-16T10:38:59;20.60;99.90
33717;DHT22;20046;50.746;7.072;2022-10-16T10:41:51;20.80;99.90
33717;DHT22;20046;50.746;7.072;2022-10-16T10:45:12;21.10;99.90
33717;DHT22;20046;50.746;7.072;2022-10-16T10:50:20;21.10;99.90
33717;DHT22;20046;50.746;7.072;2022-10-16T10:52:56;21.00;99.90
33717;DHT22;20046;50.746;7.072;2022-10-16T11:01:13;20.70;99.90
33717;DHT22;20046;50.746;7.072;2022-10-16T11:06:51;20.90;99.90
33717;DHT22;20046;50.746;7.072;2022-10-16T11:09:23;21.50;99.90
33717;DHT22;20046;50.746;7.072;2022-10-16T11:12:00;22.40;99.90
33717;DHT22;20046;50.746;7.072;2022-10-16T11:17:30;25.00;99.90
33717;DHT22;20046;50.746;7.072;2022-10-16T11:20:05;25.60;99.00
33717;DHT22;20046;50.746;7.072;2022-10-16T11:22:39;26.30;97.80
33717;DHT22;20046;50.746;7.072;2022-10-16T11:25:23;28.20;95.80
33717;DHT22;20046;50.746;7.072;2022-10-16T11:36:11;27.90;89.00
33717;DHT22;20046;50.746;7.072;2022-10-16T11:38:49;27.60;89.90
33717;DHT22;20046;50.746;7.072;2022-10-16T11:41:35;28.90;87.60
33717;DHT22;20046;50.746;7.072;2022-10-16T11:44:34;30.00;84.50
33717;DHT22;20046;50.746;7.072;2022-10-16T11:49:31;30.50;79.20
33717;DHT22;20046;50.746;7.072;2022-10-16T11:52:15;30.70;78.60
33717;DHT22;20046;50.746;7.072;2022-10-16T11:54:59;30.20;76.60
33717;DHT22;20046;50.746;7.072;2022-10-16T11:57:31;30.00;77.40
33717;DHT22;20046;50.746;7.072;2022-10-16T12:08:14;24.30;87.70
33717;DHT22;20046;50.746;7.072;2022-10-16T12:10:43;23.40;90.20
33717;DHT22;20046;50.746;7.072;2022-10-16T12:13:34;22.80;90.90
33717;DHT22;20046;50.746;7.072;2022-10-16T12:16:19;22.30;92.10
33717;DHT22;20046;50.746;7.072;2022-10-16T12:18:46;22.10;92.50
33717;DHT22;20046;50.746;7.072;2022-10-16T12:21:14;22.40;93.10
33717;DHT22;20046;50.746;7.072;2022-10-16T12:23:50;23.60;92.10
33717;DHT22;20046;50.746;7.072;2022-10-16T12:26:26;24.20;91.80
33717;DHT22;20046;50.746;7.072;2022-10-16T12:28:54;24.20;91.20
33717;DHT22;20046;50.746;7.072;2022-10-16T12:31:20;24.00;91.50
33717;DHT22;20046;50.746;7.072;2022-10-16T12:34:02;23.80;92.00
33717;DHT22;20046;50.746;7.072;2022-10-16T12:36:33;23.40;92.20
33717;DHT22;20046;50.746;7.072;2022-10-16T12:39:00;23.00;92.10
33717;DHT22;20046;50.746;7.072;2022-10-16T12:41:30;22.60;93.20
33717;DHT22;20046;50.746;7.072;2022-10-16T12:43:56;22.30;94.00
33717;DHT22;20046;50.746;7.072;2022-10-16T12:48:49;21.80;94.70
33717;DHT22;20046;50.746;7.072;2022-10-16T12:51:32;21.70;95.30
33717;DHT22;20046;50.746;7.072;2022-10-16T12:54:10;22.20;96.20
33717;DHT22;20046;50.746;7.072;2022-10-16T12:56:51;23.50;94.90
33717;DHT22;20046;50.746;7.072;2022-10-16T12:59:28;24.20;93.90
33717;DHT22;20046;50.746;7.072;2022-10-16T13:04:40;26.50;92.10
33717;DHT22;20046;50.746;7.072;2022-10-16T13:10:26;27.50;89.30
33717;DHT22;20046;50.746;7.072;2022-10-16T13:15:29;25.50;90.80
33717;DHT22;20046;50.746;7.072;2022-10-16T13:18:17;24.50;92.00
33717;DHT22;20046;50.746;7.072;2022-10-16T13:27:00;22.40;94.90
33717;DHT22;20046;50.746;7.072;2022-10-16T13:29:32;22.20;96.00
33717;DHT22;20046;50.746;7.072;2022-10-16T13:32:06;22.40;95.70
33717;DHT22;20046;50.746;7.072;2022-10-16T13:34:32;22.60;95.70
33717;DHT22;20046;50.746;7.072;2022-10-16T13:36:58;22.60;95.60
33717;DHT22;20046;50.746;7.072;2022-10-16T13:39:28;22.90;95.60
33717;DHT22;20046;50.746;7.072;2022-10-16T13:42:06;23.20;94.80
33717;DHT22;20046;50.746;7.072;2022-10-16T13:44:46;23.10;95.00
33717;DHT22;20046;50.746;7.072;2022-10-16T13:47:21;22.90;95.50
33717;DHT22;20046;50.746;7.072;2022-10-16T13:50:15;23.30;95.30
33717;DHT22;20046;50.746;7.072;2022-10-16T13:52:41;23.60;94.90
33717;DHT22;20046;50.746;7.072;2022-10-16T13:55:14;23.90;95.10
33717;DHT22;20046;50.746;7.072;2022-10-16T13:57:42;24.10;94.60
33717;DHT22;20046;50.746;7.072;2022-10-16T14:00:37;24.30;94.50
33717;DHT22;20046;50.746;7.072;2022-10-16T14:03:13;24.40;94.40
33717;DHT22;20046;50.746;7.072;2022-10-16T14:06:03;24.10;94.10
33717;DHT22;20046;50.746;7.072;2022-10-16T14:08:30;23.60;95.30
33717;DHT22;20046;50.746;7.072;2022-10-16T14:11:00;23.30;95.30
33717;DHT22;20046;50.746;7.072;2022-10-16T14:13:47;22.90;95.70
33717;DHT22;20046;50.746;7.072;2022-10-16T14:16:42;22.60;96.30
33717;DHT22;20046;50.746;7.072;2022-10-16T14:19:24;22.20;96.70
33717;DHT22;20046;50.746;7.072;2022-10-16T14:21:51;22.00;97.30
33717;DHT22;20046;50.746;7.072;2022-10-16T14:24:34;21.80;97.60
33717;DHT22;20046;50.746;7.072;2022-10-16T14:27:00;21.80;98.10
33717;DHT22;20046;50.746;7.072;2022-10-16T14:29:28;21.80;98.00
33717;DHT22;20046;50.746;7.072;2022-10-16T14:32:02;21.70;98.30
33717;DHT22;20046;50.746;7.072;2022-10-16T14:34:31;21.60;98.80
33717;DHT22;20046;50.746;7.072;2022-10-16T14:37:00;21.50;98.90
33717;DHT22;20046;50.746;7.072;2022-10-16T14:39:30;21.50;99.30
33717;DHT22;20046;50.746;7.072;2022-10-16T14:41:56;21.50;99.40
33717;DHT22;20046;50.746;7.072;2022-10-16T14:44:28;21.50;99.70
33717;DHT22;20046;50.746;7.072;2022-10-16T14:46:54;21.50;99.70
33717;DHT22;20046;50.746;7.072;2022-10-16T14:49:20;21.40;99.90
33717;DHT22;20046;50.746;7.072;2022-10-16T14:51:47;21.30;99.90
33717;DHT22;20046;50.746;7.072;2022-10-16T14:54:14;21.20;99.90
33717;DHT22;20046;50.746;7.072;2022-10-16T14:56:59;21.00;99.90
33717;DHT22;20046;50.746;7.072;2022-10-16T14:59:36;20.80;99.90
33717;DHT22;20046;50.746;7.072;2022-10-16T15:04:54;20.60;99.90
33717;DHT22;20046;50.746;7.072;2022-10-16T15:07:20;20.50;99.90
33717;DHT22;20046;50.746;7.072;2022-10-16T15:09:46;20.50;99.90
33717;DHT22;20046;50.746;7.072;2022-10-16T15:12:11;20.40;99.90
33717;DHT22;20046;50.746;7.072;2022-10-16T15:14:37;20.40;99.90
33717;DHT22;20046;50.746;7.072;2022-10-16T15:17:03;20.30;99.90
33717;DHT22;20046;50.746;7.072;2022-10-16T15:19:30;20.30;99.90
33717;DHT22;20046;50.746;7.072;2022-10-16T15:21:55;20.20;99.90
33717;DHT22;20046;50.746;7.072;2022-10-16T15:24:21;20.20;99.90
33717;DHT22;20046;50.746;7.072;2022-10-16T15:26:47;20.10;99.90
33717;DHT22;20046;50.746;7.072;2022-10-16T15:29:13;20.00;99.90
33717;DHT22;20046;50.746;7.072;2022-10-16T15:31:38;19.90;99.90
33717;DHT22;20046;50.746;7.072;2022-10-16T15:34:08;19.90;99.90
33717;DHT22;20046;50.746;7.072;2022-10-16T15:36:37;19.90;99.90
33717;DHT22;20046;50.746;7.072;2022-10-16T15:39:03;19.80;99.90
33717;DHT22;20046;50.746;7.072;2022-10-16T15:41:29;19.70;99.90
33717;DHT22;20046;50.746;7.072;2022-10-16T15:43:55;19.60;99.90
33717;DHT22;20046;50.746;7.072;2022-10-16T15:46:22;19.50;99.90
33717;DHT22;20046;50.746;7.072;2022-10-16T15:48:50;19.40;99.90
33717;DHT22;20046;50.746;7.072;2022-10-16T15:51:16;19.40;99.90
33717;DHT22;20046;50.746;7.072;2022-10-16T15:53:42;19.40;99.90
33717;DHT22;20046;50.746;7.072;2022-10-16T15:56:10;19.40;99.90
33717;DHT22;20046;50.746;7.072;2022-10-16T15:58:36;19.40;99.90
33717;DHT22;20046;50.746;7.072;2022-10-16T16:01:02;19.30;99.90
33717;DHT22;20046;50.746;7.072;2022-10-16T16:03:29;19.30;99.90
33717;DHT22;20046;50.746;7.072;2022-10-16T16:05:55;19.30;99.90
33717;DHT22;20046;50.746;7.072;2022-10-16T16:08:21;19.30;99.90
33717;DHT22;20046;50.746;7.072;2022-10-16T16:11:05;19.30;99.90
33717;DHT22;20046;50.746;7.072;2022-10-16T16:13:31;19.20;99.90
33717;DHT22;20046;50.746;7.072;2022-10-16T16:15:57;19.20;99.90
33717;DHT22;20046;50.746;7.072;2022-10-16T16:18:22;19.10;99.90
33717;DHT22;20046;50.746;7.072;2022-10-16T16:20:50;19.10;99.90
33717;DHT22;20046;50.746;7.072;2022-10-16T16:23:15;19.10;99.90
33717;DHT22;20046;50.746;7.072;2022-10-16T16:25:41;19.00;99.90
33717;DHT22;20046;50.746;7.072;2022-10-16T16:28:07;19.00;99.90
33717;DHT22;20046;50.746;7.072;2022-10-16T16:30:36;19.00;99.90
33717;DHT22;20046;50.746;7.072;2022-10-16T16:33:01;18.90;99.90
33717;DHT22;20046;50.746;7.072;2022-10-16T16:35:27;18.90;99.90
33717;DHT22;20046;50.746;7.072;2022-10-16T16:37:52;18.90;99.90
33717;DHT22;20046;50.746;7.072;2022-10-16T16:40:18;18.90;99.90
33717;DHT22;20046;50.746;7.072;2022-10-16T16:42:43;18.90;99.90
33717;DHT22;20046;50.746;7.072;2022-10-16T16:45:09;18.80;99.90
33717;DHT22;20046;50.746;7.072;2022-10-16T16:47:35;18.80;99.90
33717;DHT22;20046;50.746;7.072;2022-10-16T16:50:00;18.80;99.90
33717;DHT22;20046;50.746;7.072;2022-10-16T16:52:30;18.80;99.90
33717;DHT22;20046;50.746;7.072;2022-10-16T16:54:55;18.70;99.90
33717;DHT22;20046;50.746;7.072;2022-10-16T16:57:21;18.70;99.90
33717;DHT22;20046;50.746;7.072;2022-10-16T16:59:47;18.60;99.90
33717;DHT22;20046;50.746;7.072;2022-10-16T17:02:15;18.60;99.90
33717;DHT22;20046;50.746;7.072;2022-10-16T17:04:40;18.60;99.90
33717;DHT22;20046;50.746;7.072;2022-10-16T17:07:06;18.60;99.90
33717;DHT22;20046;50.746;7.072;2022-10-16T17:09:32;18.60;99.90
33717;DHT22;20046;50.746;7.072;2022-10-16T17:11:58;18.50;99.90
33717;DHT22;20046;50.746;7.072;2022-10-16T17:14:23;18.40;99.90
33717;DHT22;20046;50.746;7.072;2022-10-16T17:16:49;18.40;99.90
33717;DHT22;20046;50.746;7.072;2022-10-16T17:19:18;18.50;99.90
33717;DHT22;20046;50.746;7.072;2022-10-16T17:21:47;18.40;99.90
33717;DHT22;20046;50.746;7.072;2022-10-16T17:24:13;18.40;99.90
33717;DHT22;20046;50.746;7.072;2022-10-16T17:26:39;18.40;99.90
33717;DHT22;20046;50.746;7.072;2022-10-16T17:29:06;18.40;99.90
33717;DHT22;20046;50.746;7.072;2022-10-16T17:31:34;18.40;99.90
33717;DHT22;20046;50.746;7.072;2022-10-16T17:34:03;18.30;99.90
33717;DHT22;20046;50.746;7.072;2022-10-16T17:36:30;18.30;99.90
33717;DHT22;20046;50.746;7.072;2022-10-16T17:39:01;18.30;99.90
33717;DHT22;20046;50.746;7.072;2022-10-16T17:41:29;18.30;99.90